sensor_id;sensor_type;location;lat;lon;timestamp;P1;durP1;ratioP1;P2;durP2;ratioP2
54935;SDS011;40838;50.676;7.838;2022-12-15T00:01:03;27.95;;;13.57;;
54935;SDS011;40838;50.676;7.838;2022-12-15T00:03:49;33.50;;;14.75;;
54935;SDS011;40838;50.676;7.838;2022-12-15T00:06:33;27.65;;;14.27;;
54935;SDS011;40838;50.676;7.838;2022-12-15T00:09:18;31.40;;;15.30;;
54935;SDS011;40838;50.676;7.838;2022-12-15T00:12:02;33.92;;;14.80;;
54935;SDS011;40838;50.676;7.838;2022-12-15T00:17:31;35.38;;;16.92;;
54935;SDS011;40838;50.676;7.838;2022-12-15T00:20:17;32.40;;;15.27;;
54935;SDS011;40838;50.676;7.838;2022-12-15T00:23:05;36.40;;;15.35;;
54935;SDS011;40838;50.676;7.838;2022-12-15T00:25:51;33.15;;;17.05;;
54935;SDS011;40838;50.676;7.838;2022-12-15T00:28:35;27.08;;;13.73;;
54935;SDS011;40838;50.676;7.838;2022-12-15T00:31:19;34.10;;;15.80;;
54935;SDS011;40838;50.676;7.838;2022-12-15T00:34:03;30.88;;;15.45;;
54935;SDS011;40838;50.676;7.838;2022-12-15T00:36:49;30.98;;;15.63;;
54935;SDS011;40838;50.676;7.838;2022-12-15T00:39:33;33.22;;;14.98;;
54935;SDS011;40838;50.676;7.838;2022-12-15T00:42:00;33.67;;;16.15;;
54935;SDS011;40838;50.676;7.838;2022-12-15T00:44:27;33.05;;;15.43;;
54935;SDS011;40838;50.676;7.838;2022-12-15T00:46:54;35.90;;;16.60;;
54935;SDS011;40838;50.676;7.838;2022-12-15T00:49:20;38.45;;;17.17;;
54935;SDS011;40838;50.676;7.838;2022-12-15T00:52:06;37.28;;;17.48;;
54935;SDS011;40838;50.676;7.838;2022-12-15T00:54:51;36.15;;;16.08;;
54935;SDS011;40838;50.676;7.838;2022-12-15T00:57:38;45.45;;;19.40;;
54935;SDS011;40838;50.676;7.838;2022-12-15T01:00:23;37.00;;;17.75;;
54935;SDS011;40838;50.676;7.838;2022-12-15T01:03:08;32.42;;;15.25;;
54935;SDS011;40838;50.676;7.838;2022-12-15T01:05:54;36.15;;;17.73;;
54935;SDS011;40838;50.676;7.838;2022-12-15T01:08:39;35.72;;;15.90;;
54935;SDS011;40838;50.676;7.838;2022-12-15T01:11:24;34.05;;;16.67;;
54935;SDS011;40838;50.676;7.838;2022-12-15T01:14:10;37.85;;;15.80;;
54935;SDS011;40838;50.676;7.838;2022-12-15T01:16:55;34.00;;;14.32;;
54935;SDS011;40838;50.676;7.838;2022-12-15T01:19:39;27.90;;;14.02;;
54935;SDS011;40838;50.676;7.838;2022-12-15T01:22:24;31.60;;;15.55;;
54935;SDS011;40838;50.676;7.838;2022-12-15T01:24:52;32.20;;;14.50;;
54935;SDS011;40838;50.676;7.838;2022-12-15T01:27:21;30.95;;;13.45;;
54935;SDS011;40838;50.676;7.838;2022-12-15T01:29:48;31.25;;;15.05;;
54935;SDS011;40838;50.676;7.838;2022-12-15T01:32:17;30.80;;;14.93;;
54935;SDS011;40838;50.676;7.838;2022-12-15T01:34:44;28.17;;;14.82;;
54935;SDS011;40838;50.676;7.838;2022-12-15T01:37:10;29.55;;;14.77;;
54935;SDS011;40838;50.676;7.838;2022-12-15T01:39:37;32.60;;;16.17;;
54935;SDS011;40838;50.676;7.838;2022-12-15T01:42:23;30.13;;;14.93;;
54935;SDS011;40838;50.676;7.838;2022-12-15T01:44:53;30.38;;;14.00;;
54935;SDS011;40838;50.676;7.838;2022-12-15T01:48:09;31.92;;;15.82;;
54935;SDS011;40838;50.676;7.838;2022-12-15T01:50:40;38.17;;;16.40;;
54935;SDS011;40838;50.676;7.838;2022-12-15T01:53:09;31.48;;;15.88;;
54935;SDS011;40838;50.676;7.838;2022-12-15T01:55:38;31.40;;;16.15;;
54935;SDS011;40838;50.676;7.838;2022-12-15T01:58:09;30.83;;;14.35;;
54935;SDS011;40838;50.676;7.838;2022-12-15T02:00:40;31.48;;;14.80;;
54935;SDS011;40838;50.676;7.838;2022-12-15T02:03:08;31.17;;;14.48;;
54935;SDS011;40838;50.676;7.838;2022-12-15T02:05:36;31.13;;;15.20;;
54935;SDS011;40838;50.676;7.838;2022-12-15T02:08:05;36.15;;;16.67;;
54935;SDS011;40838;50.676;7.838;2022-12-15T02:10:35;35.17;;;17.02;;
54935;SDS011;40838;50.676;7.838;2022-12-15T02:13:17;31.30;;;15.48;;
54935;SDS011;40838;50.676;7.838;2022-12-15T02:15:52;33.60;;;15.32;;
54935;SDS011;40838;50.676;7.838;2022-12-15T02:18:24;35.67;;;15.38;;
54935;SDS011;40838;50.676;7.838;2022-12-15T02:20:58;34.35;;;15.18;;
54935;SDS011;40838;50.676;7.838;2022-12-15T02:29:44;30.73;;;13.65;;
54935;SDS011;40838;50.676;7.838;2022-12-15T02:32:49;34.88;;;15.10;;
54935;SDS011;40838;50.676;7.838;2022-12-15T02:35:27;31.70;;;14.45;;
54935;SDS011;40838;50.676;7.838;2022-12-15T02:37:58;28.55;;;14.55;;
54935;SDS011;40838;50.676;7.838;2022-12-15T02:40:26;29.73;;;13.70;;
54935;SDS011;40838;50.676;7.838;2022-12-15T02:42:53;28.48;;;13.32;;
54935;SDS011;40838;50.676;7.838;2022-12-15T02:45:26;27.85;;;13.23;;
54935;SDS011;40838;50.676;7.838;2022-12-15T02:50:37;29.58;;;12.48;;
54935;SDS011;40838;50.676;7.838;2022-12-15T02:53:17;26.53;;;12.63;;
54935;SDS011;40838;50.676;7.838;2022-12-15T02:55:56;32.63;;;14.27;;
54935;SDS011;40838;50.676;7.838;2022-12-15T02:58:32;29.50;;;13.93;;
54935;SDS011;40838;50.676;7.838;2022-12-15T03:01:07;24.90;;;13.88;;
54935;SDS011;40838;50.676;7.838;2022-12-15T03:03:40;23.13;;;10.43;;
54935;SDS011;40838;50.676;7.838;2022-12-15T03:06:08;24.92;;;11.95;;
54935;SDS011;40838;50.676;7.838;2022-12-15T03:08:35;28.25;;;14.25;;
54935;SDS011;40838;50.676;7.838;2022-12-15T03:11:08;29.02;;;13.40;;
54935;SDS011;40838;50.676;7.838;2022-12-15T03:13:35;31.35;;;14.10;;
54935;SDS011;40838;50.676;7.838;2022-12-15T03:16:02;26.10;;;13.75;;
54935;SDS011;40838;50.676;7.838;2022-12-15T03:18:29;28.77;;;13.23;;
54935;SDS011;40838;50.676;7.838;2022-12-15T03:20:57;31.27;;;15.23;;
54935;SDS011;40838;50.676;7.838;2022-12-15T03:23:24;30.30;;;14.73;;
54935;SDS011;40838;50.676;7.838;2022-12-15T03:25:51;30.30;;;14.80;;
54935;SDS011;40838;50.676;7.838;2022-12-15T03:28:17;29.77;;;14.57;;
54935;SDS011;40838;50.676;7.838;2022-12-15T03:30:44;30.52;;;13.82;;
54935;SDS011;40838;50.676;7.838;2022-12-15T03:33:11;29.75;;;14.55;;
54935;SDS011;40838;50.676;7.838;2022-12-15T03:35:38;29.45;;;16.52;;
54935;SDS011;40838;50.676;7.838;2022-12-15T03:38:06;27.83;;;14.15;;
54935;SDS011;40838;50.676;7.838;2022-12-15T03:40:33;25.48;;;13.98;;
54935;SDS011;40838;50.676;7.838;2022-12-15T03:43:00;34.15;;;16.23;;
54935;SDS011;40838;50.676;7.838;2022-12-15T03:45:27;31.25;;;14.55;;
54935;SDS011;40838;50.676;7.838;2022-12-15T03:47:55;30.33;;;14.05;;
54935;SDS011;40838;50.676;7.838;2022-12-15T03:50:23;26.25;;;13.10;;
54935;SDS011;40838;50.676;7.838;2022-12-15T03:52:52;27.27;;;13.57;;
54935;SDS011;40838;50.676;7.838;2022-12-15T03:55:21;26.05;;;13.57;;
54935;SDS011;40838;50.676;7.838;2022-12-15T03:57:49;29.55;;;13.73;;
54935;SDS011;40838;50.676;7.838;2022-12-15T04:00:18;30.00;;;15.15;;
54935;SDS011;40838;50.676;7.838;2022-12-15T04:02:46;40.70;;;16.83;;
54935;SDS011;40838;50.676;7.838;2022-12-15T04:05:14;30.00;;;14.13;;
54935;SDS011;40838;50.676;7.838;2022-12-15T04:07:43;27.42;;;14.00;;
54935;SDS011;40838;50.676;7.838;2022-12-15T04:10:09;26.05;;;13.23;;
54935;SDS011;40838;50.676;7.838;2022-12-15T04:12:38;27.75;;;12.48;;
54935;SDS011;40838;50.676;7.838;2022-12-15T04:15:06;29.42;;;14.20;;
54935;SDS011;40838;50.676;7.838;2022-12-15T04:17:34;29.00;;;13.95;;
54935;SDS011;40838;50.676;7.838;2022-12-15T04:20:01;29.83;;;14.18;;
54935;SDS011;40838;50.676;7.838;2022-12-15T04:22:38;24.63;;;12.32;;
54935;SDS011;40838;50.676;7.838;2022-12-15T04:25:07;31.10;;;13.55;;
54935;SDS011;40838;50.676;7.838;2022-12-15T04:27:54;33.22;;;14.38;;
54935;SDS011;40838;50.676;7.838;2022-12-15T04:30:39;29.17;;;14.60;;
54935;SDS011;40838;50.676;7.838;2022-12-15T04:33:28;30.38;;;13.45;;
54935;SDS011;40838;50.676;7.838;2022-12-15T04:36:13;27.15;;;13.98;;
54935;SDS011;40838;50.676;7.838;2022-12-15T04:38:57;32.58;;;14.52;;
54935;SDS011;40838;50.676;7.838;2022-12-15T04:41:43;29.92;;;14.57;;
54935;SDS011;40838;50.676;7.838;2022-12-15T04:44:28;30.23;;;13.35;;
54935;SDS011;40838;50.676;7.838;2022-12-15T04:47:13;37.20;;;16.60;;
54935;SDS011;40838;50.676;7.838;2022-12-15T04:49:58;35.05;;;15.38;;
54935;SDS011;40838;50.676;7.838;2022-12-15T04:52:42;26.85;;;12.98;;
54935;SDS011;40838;50.676;7.838;2022-12-15T04:55:26;28.98;;;13.93;;
54935;SDS011;40838;50.676;7.838;2022-12-15T04:58:10;29.58;;;13.35;;
54935;SDS011;40838;50.676;7.838;2022-12-15T05:00:56;25.25;;;11.40;;
54935;SDS011;40838;50.676;7.838;2022-12-15T05:03:41;25.98;;;11.95;;
54935;SDS011;40838;50.676;7.838;2022-12-15T05:06:26;24.23;;;12.10;;
54935;SDS011;40838;50.676;7.838;2022-12-15T05:09:10;29.48;;;12.18;;
54935;SDS011;40838;50.676;7.838;2022-12-15T05:11:55;26.55;;;12.50;;
54935;SDS011;40838;50.676;7.838;2022-12-15T05:14:39;28.90;;;12.20;;
54935;SDS011;40838;50.676;7.838;2022-12-15T05:17:24;29.63;;;13.35;;
54935;SDS011;40838;50.676;7.838;2022-12-15T05:20:08;29.20;;;12.88;;
54935;SDS011;40838;50.676;7.838;2022-12-15T05:22:53;32.47;;;13.82;;
54935;SDS011;40838;50.676;7.838;2022-12-15T05:25:38;29.50;;;13.35;;
54935;SDS011;40838;50.676;7.838;2022-12-15T05:28:22;28.23;;;13.63;;
54935;SDS011;40838;50.676;7.838;2022-12-15T05:31:07;28.27;;;13.05;;
54935;SDS011;40838;50.676;7.838;2022-12-15T05:33:53;31.90;;;13.88;;
54935;SDS011;40838;50.676;7.838;2022-12-15T05:36:21;32.30;;;13.15;;
54935;SDS011;40838;50.676;7.838;2022-12-15T05:38:48;27.90;;;12.70;;
54935;SDS011;40838;50.676;7.838;2022-12-15T05:41:15;32.13;;;14.15;;
54935;SDS011;40838;50.676;7.838;2022-12-15T05:43:42;33.53;;;14.90;;
54935;SDS011;40838;50.676;7.838;2022-12-15T05:46:09;31.98;;;14.85;;
54935;SDS011;40838;50.676;7.838;2022-12-15T05:48:37;29.63;;;13.60;;
54935;SDS011;40838;50.676;7.838;2022-12-15T05:51:06;30.42;;;13.52;;
54935;SDS011;40838;50.676;7.838;2022-12-15T05:53:35;28.15;;;12.23;;
54935;SDS011;40838;50.676;7.838;2022-12-15T05:56:03;29.63;;;13.73;;
54935;SDS011;40838;50.676;7.838;2022-12-15T05:58:31;32.05;;;13.55;;
54935;SDS011;40838;50.676;7.838;2022-12-15T06:01:01;28.20;;;13.13;;
54935;SDS011;40838;50.676;7.838;2022-12-15T06:03:30;26.67;;;13.27;;
54935;SDS011;40838;50.676;7.838;2022-12-15T06:05:59;29.92;;;13.63;;
54935;SDS011;40838;50.676;7.838;2022-12-15T06:08:29;30.63;;;13.07;;
54935;SDS011;40838;50.676;7.838;2022-12-15T06:10:56;31.13;;;13.20;;
54935;SDS011;40838;50.676;7.838;2022-12-15T06:13:23;34.28;;;14.20;;
54935;SDS011;40838;50.676;7.838;2022-12-15T06:15:55;31.70;;;13.77;;
54935;SDS011;40838;50.676;7.838;2022-12-15T06:18:22;28.48;;;13.55;;
54935;SDS011;40838;50.676;7.838;2022-12-15T06:20:55;32.80;;;13.45;;
54935;SDS011;40838;50.676;7.838;2022-12-15T06:23:23;37.83;;;14.60;;
54935;SDS011;40838;50.676;7.838;2022-12-15T06:25:51;33.97;;;14.80;;
54935;SDS011;40838;50.676;7.838;2022-12-15T06:28:19;33.60;;;14.15;;
54935;SDS011;40838;50.676;7.838;2022-12-15T06:30:49;35.13;;;13.98;;
54935;SDS011;40838;50.676;7.838;2022-12-15T06:33:17;30.25;;;12.80;;
54935;SDS011;40838;50.676;7.838;2022-12-15T06:35:44;34.53;;;13.45;;
54935;SDS011;40838;50.676;7.838;2022-12-15T06:38:11;34.22;;;14.20;;
54935;SDS011;40838;50.676;7.838;2022-12-15T06:40:38;39.58;;;14.70;;
54935;SDS011;40838;50.676;7.838;2022-12-15T06:43:07;29.70;;;13.75;;
54935;SDS011;40838;50.676;7.838;2022-12-15T06:45:34;36.42;;;15.27;;
54935;SDS011;40838;50.676;7.838;2022-12-15T06:48:01;34.80;;;15.18;;
54935;SDS011;40838;50.676;7.838;2022-12-15T06:50:28;34.15;;;15.02;;
54935;SDS011;40838;50.676;7.838;2022-12-15T06:52:55;39.63;;;14.68;;
54935;SDS011;40838;50.676;7.838;2022-12-15T06:55:24;32.03;;;14.07;;
54935;SDS011;40838;50.676;7.838;2022-12-15T06:57:51;30.98;;;13.52;;
54935;SDS011;40838;50.676;7.838;2022-12-15T07:00:19;37.70;;;14.27;;
54935;SDS011;40838;50.676;7.838;2022-12-15T07:02:46;30.90;;;14.10;;
54935;SDS011;40838;50.676;7.838;2022-12-15T07:05:13;31.80;;;14.00;;
54935;SDS011;40838;50.676;7.838;2022-12-15T07:07:40;32.38;;;15.13;;
54935;SDS011;40838;50.676;7.838;2022-12-15T07:10:07;34.47;;;15.18;;
54935;SDS011;40838;50.676;7.838;2022-12-15T07:12:36;30.27;;;13.13;;
54935;SDS011;40838;50.676;7.838;2022-12-15T07:15:03;32.53;;;13.45;;
54935;SDS011;40838;50.676;7.838;2022-12-15T07:17:34;43.08;;;15.00;;
54935;SDS011;40838;50.676;7.838;2022-12-15T07:20:01;35.67;;;15.00;;
54935;SDS011;40838;50.676;7.838;2022-12-15T07:22:29;34.30;;;14.23;;
54935;SDS011;40838;50.676;7.838;2022-12-15T07:24:56;42.45;;;16.95;;
54935;SDS011;40838;50.676;7.838;2022-12-15T07:27:25;38.65;;;16.55;;
54935;SDS011;40838;50.676;7.838;2022-12-15T07:29:52;36.35;;;15.75;;
54935;SDS011;40838;50.676;7.838;2022-12-15T07:32:19;45.60;;;18.55;;
54935;SDS011;40838;50.676;7.838;2022-12-15T07:34:47;46.63;;;17.40;;
54935;SDS011;40838;50.676;7.838;2022-12-15T07:37:14;50.75;;;18.67;;
54935;SDS011;40838;50.676;7.838;2022-12-15T07:39:41;42.80;;;16.65;;
54935;SDS011;40838;50.676;7.838;2022-12-15T07:42:08;42.75;;;16.27;;
54935;SDS011;40838;50.676;7.838;2022-12-15T07:44:35;42.13;;;16.98;;
54935;SDS011;40838;50.676;7.838;2022-12-15T07:47:02;44.28;;;17.90;;
54935;SDS011;40838;50.676;7.838;2022-12-15T07:49:29;46.80;;;18.10;;
54935;SDS011;40838;50.676;7.838;2022-12-15T07:51:58;52.28;;;19.40;;
54935;SDS011;40838;50.676;7.838;2022-12-15T07:54:24;61.45;;;20.88;;
54935;SDS011;40838;50.676;7.838;2022-12-15T07:56:51;50.70;;;18.42;;
54935;SDS011;40838;50.676;7.838;2022-12-15T07:59:18;51.60;;;19.35;;
54935;SDS011;40838;50.676;7.838;2022-12-15T08:01:45;48.92;;;18.40;;
54935;SDS011;40838;50.676;7.838;2022-12-15T08:04:12;51.78;;;18.95;;
54935;SDS011;40838;50.676;7.838;2022-12-15T08:06:39;48.13;;;20.15;;
54935;SDS011;40838;50.676;7.838;2022-12-15T08:09:08;50.05;;;19.33;;
54935;SDS011;40838;50.676;7.838;2022-12-15T08:11:35;47.53;;;19.23;;
54935;SDS011;40838;50.676;7.838;2022-12-15T08:14:02;56.85;;;21.27;;
54935;SDS011;40838;50.676;7.838;2022-12-15T08:16:30;57.85;;;22.65;;
54935;SDS011;40838;50.676;7.838;2022-12-15T08:18:58;54.28;;;21.88;;
54935;SDS011;40838;50.676;7.838;2022-12-15T08:21:25;50.95;;;23.58;;
54935;SDS011;40838;50.676;7.838;2022-12-15T08:23:52;46.83;;;21.60;;
54935;SDS011;40838;50.676;7.838;2022-12-15T08:26:20;61.78;;;26.33;;
54935;SDS011;40838;50.676;7.838;2022-12-15T08:28:47;56.45;;;25.40;;
54935;SDS011;40838;50.676;7.838;2022-12-15T08:31:15;52.75;;;23.10;;
54935;SDS011;40838;50.676;7.838;2022-12-15T08:33:44;48.60;;;20.48;;
54935;SDS011;40838;50.676;7.838;2022-12-15T08:36:13;49.05;;;22.52;;
54935;SDS011;40838;50.676;7.838;2022-12-15T08:38:41;47.05;;;19.90;;
54935;SDS011;40838;50.676;7.838;2022-12-15T08:41:11;38.65;;;17.67;;
54935;SDS011;40838;50.676;7.838;2022-12-15T08:43:40;45.95;;;19.20;;
54935;SDS011;40838;50.676;7.838;2022-12-15T08:46:07;43.22;;;18.65;;
54935;SDS011;40838;50.676;7.838;2022-12-15T08:48:34;46.45;;;18.45;;
54935;SDS011;40838;50.676;7.838;2022-12-15T08:51:01;44.25;;;18.42;;
54935;SDS011;40838;50.676;7.838;2022-12-15T08:53:28;39.50;;;17.40;;
54935;SDS011;40838;50.676;7.838;2022-12-15T08:56:00;58.25;;;21.15;;
54935;SDS011;40838;50.676;7.838;2022-12-15T08:58:28;37.75;;;18.75;;
54935;SDS011;40838;50.676;7.838;2022-12-15T09:00:59;45.30;;;20.08;;
54935;SDS011;40838;50.676;7.838;2022-12-15T09:03:26;40.75;;;16.73;;
54935;SDS011;40838;50.676;7.838;2022-12-15T09:05:53;36.03;;;17.00;;
54935;SDS011;40838;50.676;7.838;2022-12-15T09:08:22;43.22;;;18.05;;
54935;SDS011;40838;50.676;7.838;2022-12-15T09:10:49;40.58;;;16.90;;
54935;SDS011;40838;50.676;7.838;2022-12-15T09:13:16;36.88;;;16.58;;
54935;SDS011;40838;50.676;7.838;2022-12-15T09:15:43;38.25;;;17.33;;
54935;SDS011;40838;50.676;7.838;2022-12-15T09:18:11;39.80;;;16.98;;
54935;SDS011;40838;50.676;7.838;2022-12-15T09:20:39;46.30;;;18.17;;
54935;SDS011;40838;50.676;7.838;2022-12-15T09:23:06;42.67;;;17.75;;
54935;SDS011;40838;50.676;7.838;2022-12-15T09:25:34;37.08;;;16.65;;
54935;SDS011;40838;50.676;7.838;2022-12-15T09:28:01;33.20;;;15.75;;
54935;SDS011;40838;50.676;7.838;2022-12-15T09:30:28;50.40;;;18.90;;
54935;SDS011;40838;50.676;7.838;2022-12-15T09:32:54;59.90;;;21.05;;
54935;SDS011;40838;50.676;7.838;2022-12-15T09:35:24;42.30;;;16.20;;
54935;SDS011;40838;50.676;7.838;2022-12-15T09:37:51;30.20;;;14.73;;
54935;SDS011;40838;50.676;7.838;2022-12-15T09:40:18;43.67;;;16.23;;
54935;SDS011;40838;50.676;7.838;2022-12-15T09:42:46;32.55;;;16.58;;
54935;SDS011;40838;50.676;7.838;2022-12-15T09:45:18;34.83;;;16.25;;
54935;SDS011;40838;50.676;7.838;2022-12-15T09:47:50;41.25;;;16.00;;
54935;SDS011;40838;50.676;7.838;2022-12-15T09:50:23;33.35;;;15.55;;
54935;SDS011;40838;50.676;7.838;2022-12-15T09:52:55;35.97;;;16.02;;
54935;SDS011;40838;50.676;7.838;2022-12-15T09:55:24;35.28;;;16.55;;
54935;SDS011;40838;50.676;7.838;2022-12-15T09:57:52;33.42;;;15.35;;
54935;SDS011;40838;50.676;7.838;2022-12-15T10:00:23;37.35;;;15.35;;
54935;SDS011;40838;50.676;7.838;2022-12-15T10:02:59;45.92;;;19.23;;
54935;SDS011;40838;50.676;7.838;2022-12-15T10:05:56;43.40;;;18.42;;
54935;SDS011;40838;50.676;7.838;2022-12-15T10:08:36;43.13;;;20.05;;
54935;SDS011;40838;50.676;7.838;2022-12-15T10:11:12;42.08;;;19.00;;
54935;SDS011;40838;50.676;7.838;2022-12-15T10:13:46;44.65;;;18.05;;
54935;SDS011;40838;50.676;7.838;2022-12-15T10:16:20;35.97;;;16.35;;
54935;SDS011;40838;50.676;7.838;2022-12-15T10:18:54;36.28;;;18.23;;
54935;SDS011;40838;50.676;7.838;2022-12-15T10:21:34;35.85;;;17.48;;
54935;SDS011;40838;50.676;7.838;2022-12-15T10:24:08;37.47;;;17.38;;
54935;SDS011;40838;50.676;7.838;2022-12-15T10:26:41;39.42;;;17.45;;
54935;SDS011;40838;50.676;7.838;2022-12-15T10:29:12;38.88;;;17.98;;
54935;SDS011;40838;50.676;7.838;2022-12-15T10:31:51;34.55;;;15.70;;
54935;SDS011;40838;50.676;7.838;2022-12-15T10:34:23;33.58;;;16.23;;
54935;SDS011;40838;50.676;7.838;2022-12-15T10:36:54;33.88;;;16.15;;
54935;SDS011;40838;50.676;7.838;2022-12-15T10:39:35;36.35;;;18.13;;
54935;SDS011;40838;50.676;7.838;2022-12-15T10:42:10;36.60;;;17.75;;
54935;SDS011;40838;50.676;7.838;2022-12-15T10:44:47;41.05;;;19.15;;
54935;SDS011;40838;50.676;7.838;2022-12-15T10:47:17;35.67;;;15.70;;
54935;SDS011;40838;50.676;7.838;2022-12-15T10:49:45;34.85;;;16.50;;
54935;SDS011;40838;50.676;7.838;2022-12-15T10:52:15;40.20;;;17.02;;
54935;SDS011;40838;50.676;7.838;2022-12-15T10:54:53;36.42;;;17.17;;
54935;SDS011;40838;50.676;7.838;2022-12-15T10:57:22;38.63;;;16.95;;
54935;SDS011;40838;50.676;7.838;2022-12-15T10:59:52;38.10;;;17.63;;
54935;SDS011;40838;50.676;7.838;2022-12-15T11:05:14;40.25;;;18.38;;
54935;SDS011;40838;50.676;7.838;2022-12-15T11:07:44;44.13;;;17.58;;
54935;SDS011;40838;50.676;7.838;2022-12-15T11:10:16;29.23;;;14.87;;
54935;SDS011;40838;50.676;7.838;2022-12-15T11:12:53;35.45;;;16.83;;
54935;SDS011;40838;50.676;7.838;2022-12-15T11:18:15;32.90;;;15.55;;
54935;SDS011;40838;50.676;7.838;2022-12-15T11:20:49;31.38;;;16.05;;
54935;SDS011;40838;50.676;7.838;2022-12-15T11:23:23;31.70;;;16.92;;
54935;SDS011;40838;50.676;7.838;2022-12-15T11:25:58;38.28;;;16.80;;
54935;SDS011;40838;50.676;7.838;2022-12-15T11:28:31;41.80;;;18.30;;
54935;SDS011;40838;50.676;7.838;2022-12-15T11:31:05;38.05;;;17.55;;
54935;SDS011;40838;50.676;7.838;2022-12-15T11:33:41;36.05;;;16.90;;
54935;SDS011;40838;50.676;7.838;2022-12-15T11:36:10;34.63;;;16.50;;
54935;SDS011;40838;50.676;7.838;2022-12-15T11:38:48;33.20;;;16.80;;
54935;SDS011;40838;50.676;7.838;2022-12-15T11:41:25;36.80;;;16.55;;
54935;SDS011;40838;50.676;7.838;2022-12-15T11:46:53;37.00;;;17.42;;
54935;SDS011;40838;50.676;7.838;2022-12-15T11:49:45;41.83;;;19.67;;
54935;SDS011;40838;50.676;7.838;2022-12-15T11:52:28;32.17;;;16.05;;
54935;SDS011;40838;50.676;7.838;2022-12-15T11:55:10;41.03;;;17.17;;
54935;SDS011;40838;50.676;7.838;2022-12-15T12:00:38;39.37;;;17.53;;
54935;SDS011;40838;50.676;7.838;2022-12-15T12:03:11;36.83;;;17.02;;
54935;SDS011;40838;50.676;7.838;2022-12-15T12:08:40;32.60;;;15.52;;
54935;SDS011;40838;50.676;7.838;2022-12-15T12:11:24;32.70;;;17.25;;
54935;SDS011;40838;50.676;7.838;2022-12-15T12:14:04;32.85;;;17.13;;
54935;SDS011;40838;50.676;7.838;2022-12-15T12:16:45;32.90;;;16.45;;
54935;SDS011;40838;50.676;7.838;2022-12-15T12:19:22;32.78;;;15.52;;
54935;SDS011;40838;50.676;7.838;2022-12-15T12:21:54;32.20;;;15.50;;
54935;SDS011;40838;50.676;7.838;2022-12-15T12:24:25;34.78;;;15.55;;
54935;SDS011;40838;50.676;7.838;2022-12-15T12:26:57;38.83;;;15.55;;
54935;SDS011;40838;50.676;7.838;2022-12-15T12:29:30;33.80;;;15.47;;
54935;SDS011;40838;50.676;7.838;2022-12-15T12:32:01;35.53;;;16.25;;
54935;SDS011;40838;50.676;7.838;2022-12-15T12:34:36;36.00;;;16.60;;
54935;SDS011;40838;50.676;7.838;2022-12-15T12:37:13;38.80;;;17.77;;
54935;SDS011;40838;50.676;7.838;2022-12-15T12:39:46;36.70;;;16.45;;
54935;SDS011;40838;50.676;7.838;2022-12-15T12:42:17;42.42;;;17.85;;
54935;SDS011;40838;50.676;7.838;2022-12-15T12:44:50;37.17;;;17.27;;
54935;SDS011;40838;50.676;7.838;2022-12-15T12:47:19;35.60;;;16.42;;
54935;SDS011;40838;50.676;7.838;2022-12-15T12:49:50;34.85;;;16.73;;
54935;SDS011;40838;50.676;7.838;2022-12-15T12:52:22;33.63;;;17.60;;
54935;SDS011;40838;50.676;7.838;2022-12-15T12:54:56;37.90;;;18.02;;
54935;SDS011;40838;50.676;7.838;2022-12-15T12:57:39;29.40;;;15.57;;
54935;SDS011;40838;50.676;7.838;2022-12-15T13:00:17;34.13;;;15.93;;
54935;SDS011;40838;50.676;7.838;2022-12-15T13:02:53;33.22;;;16.58;;
54935;SDS011;40838;50.676;7.838;2022-12-15T13:05:48;36.47;;;16.00;;
54935;SDS011;40838;50.676;7.838;2022-12-15T13:08:26;32.45;;;16.70;;
54935;SDS011;40838;50.676;7.838;2022-12-15T13:14:22;30.65;;;15.40;;
54935;SDS011;40838;50.676;7.838;2022-12-15T13:17:03;32.45;;;14.85;;
54935;SDS011;40838;50.676;7.838;2022-12-15T13:22:22;30.98;;;15.13;;
54935;SDS011;40838;50.676;7.838;2022-12-15T13:24:54;30.13;;;15.35;;
54935;SDS011;40838;50.676;7.838;2022-12-15T13:27:22;30.95;;;14.93;;
54935;SDS011;40838;50.676;7.838;2022-12-15T13:29:59;29.30;;;15.25;;
54935;SDS011;40838;50.676;7.838;2022-12-15T13:32:32;29.33;;;14.98;;
54935;SDS011;40838;50.676;7.838;2022-12-15T13:37:51;28.48;;;13.80;;
54935;SDS011;40838;50.676;7.838;2022-12-15T13:40:24;30.25;;;15.02;;
54935;SDS011;40838;50.676;7.838;2022-12-15T13:43:30;34.63;;;16.45;;
54935;SDS011;40838;50.676;7.838;2022-12-15T13:46:11;30.55;;;14.85;;
54935;SDS011;40838;50.676;7.838;2022-12-15T13:48:41;31.15;;;16.48;;
54935;SDS011;40838;50.676;7.838;2022-12-15T13:51:16;33.28;;;16.02;;
54935;SDS011;40838;50.676;7.838;2022-12-15T13:54:10;37.63;;;16.77;;
54935;SDS011;40838;50.676;7.838;2022-12-15T13:56:46;31.88;;;15.73;;
54935;SDS011;40838;50.676;7.838;2022-12-15T13:59:30;32.95;;;15.40;;
54935;SDS011;40838;50.676;7.838;2022-12-15T14:02:19;31.48;;;16.08;;
54935;SDS011;40838;50.676;7.838;2022-12-15T14:07:49;38.70;;;17.45;;
54935;SDS011;40838;50.676;7.838;2022-12-15T14:10:23;32.92;;;16.83;;
54935;SDS011;40838;50.676;7.838;2022-12-15T14:12:54;38.40;;;18.27;;
54935;SDS011;40838;50.676;7.838;2022-12-15T14:15:26;34.67;;;17.00;;
54935;SDS011;40838;50.676;7.838;2022-12-15T14:17:59;32.10;;;15.50;;
54935;SDS011;40838;50.676;7.838;2022-12-15T14:20:28;39.63;;;18.38;;
54935;SDS011;40838;50.676;7.838;2022-12-15T14:22:57;35.95;;;17.45;;
54935;SDS011;40838;50.676;7.838;2022-12-15T14:25:25;32.05;;;16.15;;
54935;SDS011;40838;50.676;7.838;2022-12-15T14:27:54;33.10;;;16.40;;
54935;SDS011;40838;50.676;7.838;2022-12-15T14:30:22;31.90;;;17.05;;
54935;SDS011;40838;50.676;7.838;2022-12-15T14:32:52;35.25;;;16.67;;
54935;SDS011;40838;50.676;7.838;2022-12-15T14:35:26;41.08;;;18.02;;
54935;SDS011;40838;50.676;7.838;2022-12-15T14:37:56;36.70;;;18.02;;
54935;SDS011;40838;50.676;7.838;2022-12-15T14:40:26;40.58;;;18.33;;
54935;SDS011;40838;50.676;7.838;2022-12-15T14:42:55;45.00;;;18.83;;
54935;SDS011;40838;50.676;7.838;2022-12-15T14:45:23;38.03;;;18.17;;
54935;SDS011;40838;50.676;7.838;2022-12-15T14:47:53;39.33;;;18.20;;
54935;SDS011;40838;50.676;7.838;2022-12-15T14:50:23;38.75;;;18.92;;
54935;SDS011;40838;50.676;7.838;2022-12-15T14:52:53;38.33;;;18.13;;
54935;SDS011;40838;50.676;7.838;2022-12-15T14:55:31;36.50;;;18.50;;
54935;SDS011;40838;50.676;7.838;2022-12-15T14:57:59;39.63;;;19.17;;
54935;SDS011;40838;50.676;7.838;2022-12-15T15:00:28;37.33;;;17.70;;
54935;SDS011;40838;50.676;7.838;2022-12-15T15:05:48;40.50;;;17.95;;
54935;SDS011;40838;50.676;7.838;2022-12-15T15:08:21;40.03;;;19.70;;
54935;SDS011;40838;50.676;7.838;2022-12-15T15:10:53;36.30;;;16.38;;
54935;SDS011;40838;50.676;7.838;2022-12-15T15:13:22;47.60;;;21.85;;
54935;SDS011;40838;50.676;7.838;2022-12-15T15:15:51;57.20;;;24.75;;
54935;SDS011;40838;50.676;7.838;2022-12-15T15:18:21;48.83;;;21.38;;
54935;SDS011;40838;50.676;7.838;2022-12-15T15:20:55;46.30;;;20.77;;
54935;SDS011;40838;50.676;7.838;2022-12-15T15:23:27;42.83;;;20.03;;
54935;SDS011;40838;50.676;7.838;2022-12-15T15:25:55;46.47;;;19.30;;
54935;SDS011;40838;50.676;7.838;2022-12-15T15:28:25;42.15;;;18.95;;
54935;SDS011;40838;50.676;7.838;2022-12-15T15:30:53;46.78;;;20.92;;
54935;SDS011;40838;50.676;7.838;2022-12-15T15:33:22;45.38;;;20.30;;
54935;SDS011;40838;50.676;7.838;2022-12-15T15:35:50;43.47;;;19.95;;